Time;durP1;ratioP1;P1;durP2;ratioP2;P2;SDS_P1;SDS_P2;PMS_P1;PMS_P2;Temp;Humidity;BMP_temperature;BMP_pressure;BME280_temperature;BME280_humidity;BME280_pressure;Samples;Min_cycle;Max_cycle;Signal;HPM_P1;HPM_P2
2023/06/06 00:00:19;;;;;;;8.38;5.78;;;10.40;99.90;;;;;;5064916;28;20416;-74
2023/06/06 00:02:45;;;;;;;10.55;7.05;;;10.40;99.90;;;;;;5065228;28;20569;-75
2023/06/06 00:05:15;;;;;;;9.45;6.38;;;10.40;99.90;;;;;;5066670;28;20460;-75
2023/06/06 00:07:43;;;;;;;9.38;6.15;;;10.30;99.90;;;;;;5066508;28;20936;-75
2023/06/06 00:10:10;;;;;;;10.45;6.10;;;10.40;99.90;;;;;;5067220;28;20419;-75
2023/06/06 00:12:36;;;;;;;10.88;6.25;;;10.30;99.90;;;;;;5066631;28;20423;-74
2023/06/06 00:15:03;;;;;;;8.33;5.90;;;10.30;99.90;;;;;;5066191;28;20813;-74
2023/06/06 00:17:29;;;;;;;11.02;6.57;;;10.30;99.90;;;;;;5063445;28;20447;-75
2023/06/06 00:19:56;;;;;;;8.35;5.90;;;10.20;99.90;;;;;;5060689;28;21010;-73
2023/06/06 00:22:23;;;;;;;8.97;6.53;;;10.30;99.90;;;;;;5064358;28;20489;-74
2023/06/06 00:24:49;;;;;;;10.00;6.55;;;10.30;99.90;;;;;;5064523;28;20813;-74
2023/06/06 00:27:15;;;;;;;10.30;6.50;;;10.10;99.90;;;;;;5066914;28;20816;-74
2023/06/06 00:29:41;;;;;;;9.73;6.00;;;10.10;99.90;;;;;;5066161;28;20419;-75
2023/06/06 00:32:07;;;;;;;10.80;6.50;;;10.10;99.90;;;;;;5065613;28;20863;-74
2023/06/06 00:34:32;;;;;;;10.27;6.00;;;10.00;99.90;;;;;;5062516;28;20479;-75
2023/06/06 00:36:58;;;;;;;9.55;6.30;;;10.10;99.90;;;;;;5068127;28;20455;-75
2023/06/06 00:39:24;;;;;;;12.65;6.53;;;10.10;99.90;;;;;;5067419;28;20828;-74
2023/06/06 00:41:49;;;;;;;7.82;5.25;;;10.30;99.90;;;;;;5065656;28;20872;-75
2023/06/06 00:44:15;;;;;;;6.55;5.70;;;9.90;99.90;;;;;;5068184;28;20041;-75
2023/06/06 00:46:42;;;;;;;10.40;5.40;;;9.90;99.90;;;;;;5067143;28;20036;-76
2023/06/06 00:49:11;;;;;;;7.47;4.80;;;9.90;99.90;;;;;;5068835;28;20049;-75
2023/06/06 00:51:37;;;;;;;11.65;6.43;;;9.80;99.90;;;;;;5068032;28;20032;-74
2023/06/06 00:54:06;;;;;;;10.75;5.90;;;9.50;99.90;;;;;;5049350;28;20041;-75
2023/06/06 00:56:35;;;;;;;13.63;6.80;;;9.50;99.90;;;;;;5058161;28;20048;-75
2023/06/06 00:59:03;;;;;;;12.70;6.50;;;9.60;99.90;;;;;;5067700;28;20045;-75
2023/06/06 01:01:30;;;;;;;16.15;6.80;;;9.60;99.90;;;;;;5063452;28;20167;-74
2023/06/06 01:04:00;;;;;;;8.25;5.95;;;9.60;99.90;;;;;;5067053;28;20051;-74
2023/06/06 01:06:26;;;;;;;11.25;7.55;;;9.40;99.90;;;;;;5057172;28;20755;-75
2023/06/06 01:08:51;;;;;;;9.82;5.97;;;9.60;99.90;;;;;;5068186;28;20051;-75
2023/06/06 01:11:28;;;;;;;12.45;6.43;;;9.70;99.90;;;;;;5067889;28;20075;-77
2023/06/06 01:14:18;;;;;;;11.57;7.72;;;9.50;99.90;;;;;;5066453;28;20105;-74
2023/06/06 01:16:49;;;;;;;16.38;7.15;;;9.40;99.90;;;;;;5065745;28;20051;-75
2023/06/06 01:19:19;;;;;;;9.05;6.80;;;9.50;99.90;;;;;;5064791;28;20403;-75
2023/06/06 01:21:45;;;;;;;;;;;9.40;99.90;;;;;;5066899;28;20627;-74
2023/06/06 01:24:12;;;;;;;12.00;6.20;;;9.40;99.90;;;;;;5066817;28;19925;-74
2023/06/06 01:26:38;;;;;;;11.60;6.50;;;9.60;99.90;;;;;;5066876;28;20124;-75
2023/06/06 01:29:03;;;;;;;15.98;6.53;;;9.60;99.90;;;;;;5065052;28;20116;-75
2023/06/06 01:31:45;;;;;;;9.73;5.93;;;9.50;99.90;;;;;;5066573;28;20040;-74
2023/06/06 01:34:29;;;;;;;11.73;7.10;;;9.40;99.90;;;;;;5065018;28;20036;-74
2023/06/06 01:37:31;;;;;;;12.43;6.47;;;9.60;99.90;;;;;;5066147;28;20118;-74
2023/06/06 01:39:58;;;;;;;14.48;8.30;;;9.50;99.90;;;;;;5078036;28;20045;-73
2023/06/06 01:42:25;;;;;;;12.07;7.68;;;9.40;99.90;;;;;;5065949;28;20694;-75
2023/06/06 01:44:52;;;;;;;;;;;9.40;99.90;;;;;;5065575;28;20044;-74
2023/06/06 01:47:18;;;;;;;;;;;9.50;99.90;;;;;;5056443;28;20286;-75
2023/06/06 01:49:44;;;;;;;;;;;9.30;99.90;;;;;;5067887;28;19921;-74
2023/06/06 01:52:10;;;;;;;;;;;9.40;99.90;;;;;;5066978;28;19922;-74
2023/06/06 01:54:36;;;;;;;;;;;9.30;99.90;;;;;;5066246;28;20325;-74
2023/06/06 01:57:02;;;;;;;;;;;9.40;99.90;;;;;;5067337;28;19927;-75
2023/06/06 01:59:28;;;;;;;;;;;9.40;99.90;;;;;;5065536;28;19920;-74
2023/06/06 02:01:54;;;;;;;;;;;9.50;99.90;;;;;;5067330;28;20015;-74
2023/06/06 02:04:19;;;;;;;;;;;9.50;99.90;;;;;;5065160;28;20011;-76
2023/06/06 02:06:45;;;;;;;;;;;9.30;99.90;;;;;;5068592;28;20367;-74
2023/06/06 02:09:10;;;;;;;;;;;9.30;99.90;;;;;;5066385;28;20398;-73
2023/06/06 02:11:36;;;;;;;;;;;9.30;99.90;;;;;;5066329;28;20110;-74
2023/06/06 02:14:02;;;;;;;;;;;9.20;99.90;;;;;;5065633;28;19920;-74
2023/06/06 02:16:29;;;;;;;;;;;9.40;99.90;;;;;;5064726;28;20374;-74
2023/06/06 02:18:56;;;;;;;;;;;9.30;99.90;;;;;;5067194;28;19927;-75
2023/06/06 02:21:21;;;;;;;;;;;9.50;99.90;;;;;;5066280;28;19994;-74
2023/06/06 02:23:47;;;;;;;;;;;9.50;99.90;;;;;;5066135;28;20522;-73
2023/06/06 02:26:12;;;;;;;;;;;9.30;99.90;;;;;;5067927;28;19920;-75
2023/06/06 02:28:38;;;;;;;;;;;9.40;99.90;;;;;;5063924;28;19931;-74
2023/06/06 02:31:03;;;;;;;;;;;9.40;99.90;;;;;;5070465;28;19974;-74
2023/06/06 02:33:29;;;;;;;;;;;9.30;99.90;;;;;;5069117;28;20049;-75
2023/06/06 02:35:55;;;;;;;;;;;9.40;99.90;;;;;;5071319;28;20267;-73
2023/06/06 02:38:20;;;;;;;;;;;9.30;99.90;;;;;;5068959;28;19927;-74
2023/06/06 02:40:46;;;;;;;;;;;9.10;99.90;;;;;;5069657;28;19927;-75
2023/06/06 02:43:11;;;;;;;;;;;9.30;99.90;;;;;;5069284;28;19961;-73
2023/06/06 02:45:37;;;;;;;;;;;9.30;99.90;;;;;;5067385;28;19928;-75
2023/06/06 02:48:02;;;;;;;;;;;9.30;99.90;;;;;;5064364;28;19969;-73
2023/06/06 02:50:28;;;;;;;;;;;9.30;99.90;;;;;;5069281;28;20511;-73
2023/06/06 02:52:55;;;;;;;;;;;9.30;99.90;;;;;;5070633;28;19928;-74
2023/06/06 02:55:20;;;;;;;;;;;9.40;99.90;;;;;;5070686;28;19916;-74
2023/06/06 02:57:46;;;;;;;;;;;9.30;99.90;;;;;;5069042;28;19928;-75
2023/06/06 03:00:12;;;;;;;;;;;9.40;99.90;;;;;;5069177;28;19966;-74
2023/06/06 03:02:38;;;;;;;;;;;9.40;99.90;;;;;;5068207;28;19928;-75
2023/06/06 03:05:04;;;;;;;;;;;9.50;99.90;;;;;;5068220;28;20168;-74
2023/06/06 03:07:30;;;;;;;;;;;9.50;99.90;;;;;;5064937;28;19928;-75
2023/06/06 03:09:56;;;;;;;;;;;9.50;99.90;;;;;;5060088;28;19920;-75
2023/06/06 03:12:21;;;;;;;;;;;9.60;99.90;;;;;;5069240;28;20298;-74
2023/06/06 03:14:47;;;;;;;;;;;9.70;99.90;;;;;;5069219;28;19920;-75
2023/06/06 03:17:12;;;;;;;;;;;9.50;99.90;;;;;;5065637;28;20379;-75
2023/06/06 03:19:38;;;;;;;;;;;9.50;99.90;;;;;;5067587;28;19920;-74
2023/06/06 03:22:04;;;;;;;;;;;9.60;99.90;;;;;;5069701;28;19928;-75
2023/06/06 03:24:33;;;;;;;;;;;9.50;99.90;;;;;;5069515;28;19928;-74
2023/06/06 03:26:59;;;;;;;;;;;9.60;99.90;;;;;;5068344;28;19920;-75
2023/06/06 03:29:25;;;;;;;;;;;9.50;99.90;;;;;;5050948;28;19920;-75
2023/06/06 03:31:50;;;;;;;;;;;9.60;99.90;;;;;;5069026;28;20329;-75
2023/06/06 03:34:16;;;;;;;;;;;9.70;99.90;;;;;;5068846;28;20370;-75
2023/06/06 03:36:41;;;;;;;;;;;9.70;99.90;;;;;;5067558;28;19974;-76
2023/06/06 03:39:07;;;;;;;;;;;9.60;99.90;;;;;;5069734;28;19925;-74
2023/06/06 03:41:33;;;;;;;;;;;9.70;99.90;;;;;;5067072;28;19928;-74
2023/06/06 03:43:59;;;;;;;;;;;9.70;99.90;;;;;;5062990;28;20004;-74
2023/06/06 03:46:25;;;;;;;;;;;9.80;99.90;;;;;;5062141;28;20019;-75
2023/06/06 03:48:50;;;;;;;;;;;9.80;99.90;;;;;;5069139;28;20047;-75
2023/06/06 03:51:16;;;;;;;;;;;9.80;99.90;;;;;;5065954;28;19920;-75
2023/06/06 03:53:42;;;;;;;;;;;9.70;99.90;;;;;;5064016;28;19920;-74
2023/06/06 03:56:07;;;;;;;;;;;9.70;99.90;;;;;;5067807;28;19931;-75
2023/06/06 03:58:33;;;;;;;;;;;9.90;99.90;;;;;;5069070;28;19920;-75
2023/06/06 04:00:58;;;;;;;;;;;9.90;99.90;;;;;;5066449;28;19969;-75
2023/06/06 04:03:27;;;;;;;;;;;9.90;99.90;;;;;;5069043;28;19963;-73
2023/06/06 04:05:53;;;;;;;;;;;9.90;99.90;;;;;;5066818;28;19924;-75
2023/06/06 04:08:19;;;;;;;;;;;10.00;99.90;;;;;;5067252;28;19963;-76
2023/06/06 04:10:45;;;;;;;;;;;10.10;99.90;;;;;;5066800;28;20391;-74
2023/06/06 04:13:10;;;;;;;;;;;10.20;99.90;;;;;;5068747;28;20338;-75
2023/06/06 04:15:36;;;;;;;;;;;10.40;99.90;;;;;;5067192;28;20445;-74
2023/06/06 04:18:02;;;;;;;;;;;10.40;99.90;;;;;;5069143;28;20351;-74
2023/06/06 04:20:28;;;;;;;;;;;10.30;99.90;;;;;;5066852;28;19921;-74
2023/06/06 04:22:54;;;;;;;;;;;10.30;99.90;;;;;;5068977;28;20391;-77
2023/06/06 04:25:19;;;;;;;;;;;10.50;99.90;;;;;;5068643;28;19920;-75
2023/06/06 04:27:45;;;;;;;;;;;10.60;99.90;;;;;;5068127;28;20019;-74
2023/06/06 04:30:14;;;;;;;;;;;11.30;99.90;;;;;;5060550;28;20000;-75
2023/06/06 04:32:40;;;;;;;;;;;11.40;99.90;;;;;;5067672;28;19928;-74
2023/06/06 04:35:06;;;;;;;;;;;11.50;99.90;;;;;;5067196;28;19917;-74
2023/06/06 04:37:33;;;;;;;;;;;11.10;99.90;;;;;;5067782;28;19920;-74
2023/06/06 04:40:00;;;;;;;;;;;11.00;99.90;;;;;;5067382;28;19920;-74
2023/06/06 04:42:26;;;;;;;;;;;10.90;99.90;;;;;;5066970;28;19928;-76
2023/06/06 04:44:51;;;;;;;;;;;11.10;99.90;;;;;;5068200;28;19921;-75
2023/06/06 04:47:19;;;;;;;;;;;11.20;99.90;;;;;;5064740;28;19920;-74
2023/06/06 04:49:46;;;;;;;;;;;11.20;99.90;;;;;;5068147;28;19921;-75
2023/06/06 04:52:15;;;;;;;;;;;11.10;99.90;;;;;;5061043;28;20003;-75
2023/06/06 04:54:41;;;;;;;;;;;11.10;99.90;;;;;;5067849;28;19921;-75
2023/06/06 04:57:08;;;;;;;;;;;11.00;99.90;;;;;;5066743;28;19924;-74
2023/06/06 04:59:35;;;;;;;;;;;11.00;99.90;;;;;;5064084;28;19928;-75
2023/06/06 05:02:02;;;;;;;;;;;11.10;99.90;;;;;;5065160;28;19921;-75
2023/06/06 05:04:29;;;;;;;;;;;11.20;99.90;;;;;;5066295;28;20538;-75
2023/06/06 05:06:58;;;;;;;;;;;11.20;99.90;;;;;;5068470;28;19931;-75
2023/06/06 05:09:24;;;;;;;;;;;11.30;99.90;;;;;;5066133;28;19943;-76
2023/06/06 05:11:52;;;;;;;;;;;11.20;99.90;;;;;;5067051;28;19928;-77
2023/06/06 05:14:23;;;;;;;;;;;11.30;99.90;;;;;;5066840;28;20394;-75
2023/06/06 05:16:53;;;;;;;;;;;11.30;99.90;;;;;;5068276;28;19964;-75
2023/06/06 05:19:19;;;;;;;;;;;11.40;99.90;;;;;;5065385;28;20348;-74
2023/06/06 05:21:44;;;;;;;;;;;11.40;99.90;;;;;;5066852;28;19931;-75
2023/06/06 05:24:10;;;;;;;;;;;11.50;99.90;;;;;;5068411;28;19924;-75
2023/06/06 05:26:36;;;;;;;;;;;11.60;99.90;;;;;;5048972;28;19921;-75
2023/06/06 05:29:01;;;;;;;;;;;11.60;99.90;;;;;;5067553;28;19920;-75
2023/06/06 05:31:27;;;;;;;;;;;11.70;99.90;;;;;;5066136;28;19924;-75
2023/06/06 05:33:53;;;;;;;;;;;11.60;99.90;;;;;;5067248;28;19928;-74
2023/06/06 05:36:19;;;;;;;;;;;11.70;99.90;;;;;;5066075;28;19920;-74
2023/06/06 05:38:45;;;;;;;;;;;11.60;99.90;;;;;;5067380;28;19924;-74
2023/06/06 05:41:10;;;;;;;;;;;11.70;99.90;;;;;;5067545;28;20302;-75
2023/06/06 05:43:36;;;;;;;;;;;11.70;99.90;;;;;;5066824;28;19936;-74
2023/06/06 05:46:02;;;;;;;;;;;11.90;99.90;;;;;;5067004;28;19921;-74
2023/06/06 05:48:27;;;;;;;;;;;12.10;99.90;;;;;;5066439;28;19927;-74
2023/06/06 05:50:53;;;;;;;;;;;12.00;99.90;;;;;;5069190;28;20292;-74
2023/06/06 05:53:19;;;;;;;;;;;12.60;99.90;;;;;;5068090;28;19942;-75
2023/06/06 05:55:44;;;;;;;;;;;12.20;99.90;;;;;;5067390;28;20347;-73
2023/06/06 05:58:10;;;;;;;;;;;12.20;99.90;;;;;;5068544;28;19970;-75
2023/06/06 06:00:35;;;;;;;;;;;12.20;99.90;;;;;;5066194;28;19921;-76
2023/06/06 06:03:01;;;;;;;;;;;12.20;99.90;;;;;;5064232;28;19960;-74
2023/06/06 06:05:28;;;;;;;;;;;12.20;99.90;;;;;;5069747;28;19924;-74
2023/06/06 06:07:59;;;;;;;;;;;12.20;99.90;;;;;;5071766;28;19920;-74
2023/06/06 06:10:28;;;;;;;;;;;12.30;99.90;;;;;;5054311;28;20345;-74
2023/06/06 06:12:55;;;;;;;;;;;12.40;99.90;;;;;;5047597;28;19925;-74
2023/06/06 06:15:21;;;;;;;;;;;12.50;99.90;;;;;;5070020;28;20366;-75
2023/06/06 06:17:47;;;;;;;;;;;12.40;99.90;;;;;;5071555;28;19920;-75
2023/06/06 06:20:14;;;;;;;;;;;12.50;99.90;;;;;;5070295;28;19926;-74
2023/06/06 06:22:40;;;;;;;;;;;12.60;99.90;;;;;;5070985;28;19927;-72
2023/06/06 06:25:08;;;;;;;;;;;12.60;99.90;;;;;;5071245;28;20015;-72
2023/06/06 06:27:35;;;;;;;;;;;12.60;99.90;;;;;;5069460;28;20394;-74
2023/06/06 06:30:04;;;;;;;;;;;12.70;99.90;;;;;;5070809;28;19923;-73
2023/06/06 06:32:31;;;;;;;;;;;12.80;99.90;;;;;;5071237;28;19995;-73
2023/06/06 06:34:56;;;;;;;;;;;12.70;99.90;;;;;;5070273;28;19999;-74
2023/06/06 06:37:23;;;;;;;;;;;12.90;99.90;;;;;;5068382;28;20019;-74
2023/06/06 06:39:49;;;;;;;;;;;12.90;99.90;;;;;;5063252;28;19920;-74
2023/06/06 06:42:15;;;;;;;;;;;12.90;99.90;;;;;;5060727;28;19947;-74
2023/06/06 06:44:40;;;;;;;;;;;13.00;99.90;;;;;;5070466;28;19943;-74
2023/06/06 06:47:06;;;;;;;;;;;13.10;99.90;;;;;;5063779;28;19936;-74
2023/06/06 06:49:31;;;;;;;;;;;13.30;99.90;;;;;;5065498;28;19932;-76
2023/06/06 06:51:57;;;;;;;;;;;13.40;99.90;;;;;;5069513;28;19981;-74
2023/06/06 06:54:26;;;;;;;;;;;14.00;99.90;;;;;;5070697;28;20473;-75
2023/06/06 06:56:53;;;;;;;;;;;13.90;99.90;;;;;;5068610;28;20558;-76
2023/06/06 06:59:20;;;;;;;;;;;13.90;99.90;;;;;;5069551;28;20311;-73
2023/06/06 07:01:49;;;;;;;;;;;15.30;99.90;;;;;;5066104;28;19982;-74
2023/06/06 07:04:17;;;;;;;;;;;15.80;99.90;;;;;;5071293;28;20589;-73
2023/06/06 07:06:43;;;;;;;;;;;15.70;99.90;;;;;;5068862;28;19930;-74
2023/06/06 07:09:09;;;;;;;;;;;16.60;99.90;;;;;;5070174;28;19927;-73
2023/06/06 07:11:34;;;;;;;;;;;17.00;99.90;;;;;;5066376;28;19925;-74
2023/06/06 07:14:00;;;;;;;;;;;16.50;99.90;;;;;;5062049;28;20015;-76
2023/06/06 07:16:26;;;;;;;;;;;17.10;99.90;;;;;;5067845;28;20304;-74
2023/06/06 07:18:54;;;;;;;;;;;17.90;99.90;;;;;;5070082;28;19921;-73
2023/06/06 07:21:21;;;;;;;;;;;16.70;99.90;;;;;;5068544;28;19920;-74
2023/06/06 07:23:50;;;;;;;;;;;16.70;99.90;;;;;;5068426;28;19924;-73
2023/06/06 07:26:16;;;;;;;;;;;16.10;99.90;;;;;;5070306;28;19928;-74
2023/06/06 07:28:45;;;;;;;;;;;16.50;99.90;;;;;;5068965;28;19921;-74
2023/06/06 07:31:10;;;;;;;;;;;17.10;99.90;;;;;;5069750;28;19929;-74
2023/06/06 07:33:36;;;;;;;;;;;17.00;99.90;;;;;;5068968;28;19924;-74
2023/06/06 07:36:02;;;;;;;;;;;16.70;99.90;;;;;;5070579;28;20611;-74
2023/06/06 07:38:27;;;;;;;;;;;16.40;99.90;;;;;;5067033;28;19925;-75
2023/06/06 07:40:53;;;;;;;;;;;16.60;99.90;;;;;;5070294;28;19921;-77
2023/06/06 07:43:19;;;;;;;;;;;16.70;99.90;;;;;;5068919;28;20007;-73
2023/06/06 07:45:45;;;;;;;;;;;17.10;99.90;;;;;;5069205;28;20276;-74
2023/06/06 07:48:10;;;;;;;;;;;15.80;99.90;;;;;;5068912;28;19927;-74
2023/06/06 07:50:36;;;;;;;;;;;15.50;99.90;;;;;;5068926;28;20401;-73
2023/06/06 07:53:02;;;;;;;;;;;15.30;99.90;;;;;;5069189;28;19920;-73
2023/06/06 07:55:28;;;;;;;;;;;15.30;99.90;;;;;;5069558;28;19990;-74
2023/06/06 07:57:56;;;;;;;;;;;15.40;99.90;;;;;;5069734;28;19928;-72
2023/06/06 08:00:22;;;;;;;;;;;15.40;99.90;;;;;;5066644;28;20398;-72
2023/06/06 08:02:47;;;;;;;;;;;15.80;99.90;;;;;;5067332;28;19921;-74
2023/06/06 08:05:13;;;;;;;;;;;15.80;99.90;;;;;;5069362;28;20216;-74
2023/06/06 08:07:38;;;;;;;;;;;15.60;99.90;;;;;;5068094;28;19961;-73
2023/06/06 08:10:06;;;;;;;;;;;15.30;99.90;;;;;;5048661;28;19982;-75
2023/06/06 08:12:31;;;;;;;;;;;15.10;99.90;;;;;;5066501;28;19974;-73
2023/06/06 08:14:57;;;;;;;;;;;15.60;99.90;;;;;;5067401;28;19924;-77
2023/06/06 08:17:23;;;;;;;;;;;15.70;99.90;;;;;;5067877;28;20470;-74
2023/06/06 08:19:48;;;;;;;;;;;15.90;99.90;;;;;;5068127;28;19928;-75
2023/06/06 08:22:14;;;;;;;;;;;15.90;99.90;;;;;;5059680;28;19941;-72
2023/06/06 08:24:41;;;;;;;;;;;16.20;99.90;;;;;;5059981;28;19920;-74
2023/06/06 08:27:07;;;;;;;;;;;16.10;99.90;;;;;;5066880;28;19973;-72
2023/06/06 08:29:33;;;;;;;;;;;16.30;99.90;;;;;;5064920;28;19921;-73
2023/06/06 08:32:01;;;;;;;;;;;16.30;99.90;;;;;;5067991;28;19978;-74
2023/06/06 08:34:27;;;;;;;;;;;16.00;99.90;;;;;;5067874;28;19921;-74
2023/06/06 08:36:53;;;;;;;;;;;16.10;99.90;;;;;;5066931;28;19920;-74
2023/06/06 08:39:19;;;;;;;;;;;16.10;99.90;;;;;;5069600;28;19927;-74
2023/06/06 08:41:54;;;;;;;;;;;16.20;99.90;;;;;;5069868;28;19974;-73
2023/06/06 08:44:21;;;;;;;;;;;16.10;99.90;;;;;;5068150;28;19922;-74
2023/06/06 08:46:48;;;;;;;;;;;16.10;99.90;;;;;;5067572;28;19932;-72
2023/06/06 08:49:16;;;;;;;;;;;16.40;99.90;;;;;;5069139;28;19920;-73
2023/06/06 08:51:42;;;;;;;;;;;16.40;99.90;;;;;;5067515;28;20401;-73
2023/06/06 08:54:09;;;;;;;;;;;16.20;99.90;;;;;;5067417;28;19927;-73
2023/06/06 08:56:35;;;;;;;;;;;16.50;99.90;;;;;;5066829;28;20069;-73
2023/06/06 08:59:01;;;;;;;;;;;16.50;99.90;;;;;;5067674;28;19924;-74
2023/06/06 09:01:27;;;;;;;;;;;16.50;99.90;;;;;;5067161;28;19927;-75
2023/06/06 09:03:53;;;;;;;;;;;16.50;99.90;;;;;;5068638;28;20015;-73
2023/06/06 09:06:19;;;;;;;;;;;16.70;99.90;;;;;;5068269;28;19973;-73
2023/06/06 09:08:46;;;;;;;;;;;16.40;99.90;;;;;;5069394;28;19920;-73
2023/06/06 09:11:11;;;;;;;;;;;16.40;99.90;;;;;;5069288;28;19920;-74
2023/06/06 09:13:44;;;;;;;;;;;16.60;99.90;;;;;;5067154;28;19927;-74
2023/06/06 09:16:09;;;;;;;;;;;16.70;99.90;;;;;;5066945;28;19920;-74
2023/06/06 09:18:35;;;;;;;;;;;16.50;99.90;;;;;;5067544;28;19924;-74
2023/06/06 09:21:01;;;;;;;;;;;16.50;99.90;;;;;;5067888;28;19966;-75
2023/06/06 09:23:30;;;;;;;;;;;16.80;99.90;;;;;;5067037;28;20569;-73
2023/06/06 09:25:56;;;;;;;;;;;16.60;99.90;;;;;;5068487;28;19920;-73
2023/06/06 09:28:34;;;;;;;;;;;16.50;99.90;;;;;;5068011;28;19941;-74
2023/06/06 09:31:00;;;;;;;;;;;16.50;99.90;;;;;;5066012;28;20650;-73
2023/06/06 09:33:25;;;;;;;;;;;16.60;99.90;;;;;;5066900;28;19963;-75
2023/06/06 09:35:51;;;;;;;;;;;16.50;99.90;;;;;;5067874;28;19999;-73
2023/06/06 09:38:17;;;;;;;;;;;16.80;99.90;;;;;;5067305;28;19924;-74
2023/06/06 09:40:44;;;;;;;;;;;16.90;99.90;;;;;;5066335;28;19966;-73
2023/06/06 09:43:10;;;;;;;;;;;16.80;99.90;;;;;;5066513;28;19920;-73
2023/06/06 09:45:46;;;;;;;;;;;16.90;99.90;;;;;;5066280;28;20964;-72
2023/06/06 09:48:12;;;;;;;;;;;16.80;99.90;;;;;;5066118;28;19917;-73
2023/06/06 09:50:41;;;;;;;;;;;17.10;99.90;;;;;;5067351;28;19928;-72
2023/06/06 09:53:11;;;;;;;;;;;17.10;99.90;;;;;;5066544;28;19995;-74
2023/06/06 09:55:37;;;;;;;;;;;17.00;99.90;;;;;;5067273;28;19925;-73
2023/06/06 09:58:02;;;;;;;;;;;16.70;99.90;;;;;;5067808;28;19927;-73
2023/06/06 10:00:28;;;;;;;;;;;16.70;99.90;;;;;;5066140;28;19977;-76
2023/06/06 10:02:54;;;;;;;;;;;16.80;99.90;;;;;;5065892;28;20397;-73
2023/06/06 10:05:20;;;;;;;;;;;16.80;99.90;;;;;;5067925;28;19921;-73
2023/06/06 10:07:46;;;;;;;;;;;17.20;99.90;;;;;;5068641;28;19946;-74
2023/06/06 10:10:15;;;;;;;;;;;17.00;99.90;;;;;;5061222;28;20263;-73
2023/06/06 10:12:41;;;;;;;;;;;17.00;99.90;;;;;;5047679;28;19921;-73
2023/06/06 10:15:09;;;;;;;;;;;17.30;99.90;;;;;;5049199;28;20287;-73
2023/06/06 10:17:35;;;;;;;;;;;17.00;99.90;;;;;;5067157;28;19935;-73
2023/06/06 10:20:05;;;;;;;;;;;17.40;99.90;;;;;;5067770;28;20001;-73
2023/06/06 10:22:34;;;;;;;;;;;17.30;99.90;;;;;;5066698;28;19927;-73
2023/06/06 10:25:01;;;;;;;;;;;17.10;99.90;;;;;;5067819;28;19920;-73
2023/06/06 10:27:29;;;;;;;;;;;17.50;99.90;;;;;;5066204;28;19932;-72
2023/06/06 10:30:05;;;;;;;;;;;17.30;99.90;;;;;;5065461;28;20383;-74
2023/06/06 10:32:43;;;;;;;;;;;17.10;99.90;;;;;;5065812;28;20346;-74
2023/06/06 10:35:10;;;;;;;;;;;17.20;99.90;;;;;;5067611;28;19924;-75
2023/06/06 10:37:38;;;;;;;;;;;17.20;99.90;;;;;;5066327;28;19928;-73
2023/06/06 10:40:09;;;;;;;;;;;17.30;99.90;;;;;;5066982;28;19920;-73
2023/06/06 10:42:36;;;;;;;;;;;17.20;99.90;;;;;;5066701;28;19932;-75
2023/06/06 10:45:02;;;;;;;;;;;17.40;99.90;;;;;;5065926;28;20308;-74
2023/06/06 10:47:30;;;;;;;;;;;17.60;99.90;;;;;;5066142;28;19928;-74
2023/06/06 10:50:11;;;;;;;;;;;17.50;99.90;;;;;;5067228;28;19920;-74
2023/06/06 10:53:06;;;;;;;;;;;17.70;99.90;;;;;;5070874;28;19979;-74
2023/06/06 10:55:32;;;;;;;;;;;17.50;99.90;;;;;;5066859;28;19924;-73
2023/06/06 10:58:07;;;;;;;;;;;17.70;99.90;;;;;;5069619;28;19967;-74
2023/06/06 11:00:33;;;;;;;;;;;17.80;99.90;;;;;;5069827;28;19966;-73
2023/06/06 11:03:09;;;;;;;;;;;18.00;99.90;;;;;;5070819;28;20374;-74
2023/06/06 11:05:53;;;;;;;;;;;17.80;99.90;;;;;;5069908;28;20297;-75
2023/06/06 11:08:18;;;;;;;;;;;18.00;99.90;;;;;;5069270;28;19931;-73
2023/06/06 11:10:45;;;;;;;;;;;17.80;99.90;;;;;;5069874;28;19924;-74
2023/06/06 11:13:25;;;;;;;;;;;18.00;99.90;;;;;;5069222;28;19927;-75
2023/06/06 11:15:56;;;;;;;;;;;17.80;99.90;;;;;;5069403;28;20813;-74
2023/06/06 11:18:41;;;;;;;;;;;17.60;99.90;;;;;;5068876;28;20014;-73
2023/06/06 11:21:07;;;;;;;;;;;17.50;99.90;;;;;;5070428;28;19921;-73
2023/06/06 11:23:41;;;;;;;;;;;17.70;99.90;;;;;;5069418;28;19922;-73
2023/06/06 11:26:08;;;;;;;;;;;17.50;99.90;;;;;;5069552;28;19920;-74
2023/06/06 11:28:34;;;;;;;;;;;17.20;99.90;;;;;;5069529;28;20409;-75
2023/06/06 11:31:01;;;;;;;;;;;17.50;99.90;;;;;;5069586;28;19916;-75
2023/06/06 11:33:27;;;;;;;;;;;17.70;99.90;;;;;;5070340;28;20244;-75
2023/06/06 11:35:55;;;;;;;;;;;17.70;99.90;;;;;;5070528;28;20395;-74
2023/06/06 11:38:21;;;;;;;;;;;17.60;99.90;;;;;;5069653;28;19928;-76
2023/06/06 11:40:47;;;;;;;;;;;17.40;99.90;;;;;;5069305;28;19920;-76
2023/06/06 11:43:12;;;;;;;;;;;17.60;99.90;;;;;;5069480;28;20007;-72
2023/06/06 11:45:38;;;;;;;;;;;17.50;99.90;;;;;;5069644;28;19973;-74
2023/06/06 11:48:20;;;;;;;;;;;17.40;99.90;;;;;;5070469;28;19920;-76
2023/06/06 11:50:46;;;;;;;;;;;17.60;99.90;;;;;;5071124;28;19927;-75
2023/06/06 11:53:11;;;;;;;;;;;17.60;99.90;;;;;;5066380;28;20274;-73
2023/06/06 11:55:37;;;;;;;;;;;17.70;99.90;;;;;;5067051;28;19920;-75
2023/06/06 11:58:04;;;;;;;;;;;17.50;99.90;;;;;;5068901;28;19927;-74
2023/06/06 12:00:30;;;;;;;;;;;17.70;99.90;;;;;;5069025;28;19920;-75
2023/06/06 12:02:59;;;;;;;;;;;18.00;99.90;;;;;;5067460;28;19973;-76
2023/06/06 12:05:26;;;;;;;;;;;17.90;99.90;;;;;;5068456;28;20051;-73
2023/06/06 12:07:54;;;;;;;;;;;17.70;99.90;;;;;;5068924;28;19976;-75
2023/06/06 12:10:21;;;;;;;;;;;17.50;99.90;;;;;;5066479;28;19928;-74
2023/06/06 12:12:48;;;;;;;;;;;17.80;99.90;;;;;;5066100;28;19947;-74
2023/06/06 12:15:13;;;;;;;;;;;17.60;99.90;;;;;;5062094;28;19942;-72
2023/06/06 12:17:39;;;;;;;;;;;17.70;99.90;;;;;;5064850;28;20387;-74
2023/06/06 12:20:05;;;;;;;;;;;18.00;99.90;;;;;;5066303;28;19935;-75
2023/06/06 12:22:35;;;;;;;;;;;17.30;99.90;;;;;;5068210;28;19916;-78
2023/06/06 12:25:03;;;;;;;;;;;17.40;99.90;;;;;;5066909;28;19940;-74
2023/06/06 12:27:33;;;;;;;;;;;17.70;99.90;;;;;;5062311;28;19956;-73
2023/06/06 12:30:00;;;;;;;;;;;17.70;99.90;;;;;;5050580;28;19917;-75
2023/06/06 12:32:26;;;;;;;;;;;18.00;99.90;;;;;;5067177;28;19924;-73
2023/06/06 12:35:01;;;;;;;;;;;17.70;99.90;;;;;;5068181;28;19916;-74
2023/06/06 12:37:35;;;;;;;;;;;17.60;99.90;;;;;;5061933;28;19973;-74
2023/06/06 12:40:08;;;;;;;;;;;17.70;99.90;;;;;;5068365;28;19924;-75
2023/06/06 12:42:34;;;;;;;;;;;17.60;99.90;;;;;;5058953;28;20294;-73
2023/06/06 12:44:59;;;;;;;;;;;17.70;99.90;;;;;;5064608;28;19927;-71
2023/06/06 12:47:25;;;;;;;;;;;17.80;99.90;;;;;;5064901;28;20314;-70
2023/06/06 12:49:51;;;;;;;;;;;17.60;99.90;;;;;;5067269;28;19978;-72
2023/06/06 12:52:16;;;;;;;;;;;17.70;99.90;;;;;;5060540;28;19959;-74
2023/06/06 12:54:42;;;;;;;;;;;17.80;99.90;;;;;;5065699;28;20247;-72
2023/06/06 12:57:09;;;;;;;;;;;17.90;99.90;;;;;;5065701;28;21560;-74
2023/06/06 12:59:35;;;;;;;;;;;17.70;99.90;;;;;;5066644;28;19967;-74
2023/06/06 13:02:06;;;;;;;;;;;17.60;99.90;;;;;;5067154;28;19974;-73
2023/06/06 13:04:32;;;;;;;;;;;17.90;99.90;;;;;;5067289;28;19924;-72
2023/06/06 13:06:58;;;;;;;;;;;17.60;99.90;;;;;;5059567;28;19927;-74
2023/06/06 13:09:23;;;;;;;;;;;17.70;99.90;;;;;;5065274;28;19920;-73
2023/06/06 13:11:49;;;;;;;;;;;17.60;99.90;;;;;;5061515;28;19927;-73
2023/06/06 13:14:15;;;;;;;;;;;18.00;99.90;;;;;;5064980;28;19924;-74
2023/06/06 13:16:41;;;;;;;;;;;18.00;99.90;;;;;;5067042;28;20294;-74
2023/06/06 13:19:07;;;;;;;;;;;17.60;99.90;;;;;;5067385;28;19934;-75
2023/06/06 13:21:33;;;;;;;;;;;17.80;99.90;;;;;;5067197;28;19991;-74
2023/06/06 13:23:58;;;;;;;;;;;17.90;99.90;;;;;;5067434;28;19920;-74
2023/06/06 13:26:24;;;;;;;;;;;17.80;99.90;;;;;;5067866;28;20058;-74
2023/06/06 13:28:49;;;;;;;;;;;17.70;99.90;;;;;;5066596;28;19962;-74
2023/06/06 13:31:15;;;;;;;;;;;17.60;99.90;;;;;;5067981;28;19928;-74
2023/06/06 13:33:40;;;;;;;;;;;17.80;99.90;;;;;;5067029;28;19924;-74
2023/06/06 13:36:06;;;;;;;;;;;17.90;99.90;;;;;;5067976;28;19920;-74
2023/06/06 13:38:32;;;;;;;;;;;17.70;99.90;;;;;;5066684;28;19927;-74
2023/06/06 13:40:57;;;;;;;;;;;17.40;99.90;;;;;;5067287;28;20026;-74
2023/06/06 13:43:23;;;;;;;;;;;17.80;99.90;;;;;;5066590;28;20061;-73
2023/06/06 13:45:49;;;;;;;;;;;17.50;99.90;;;;;;5067230;28;20020;-74
2023/06/06 13:48:15;;;;;;;;;;;17.60;99.90;;;;;;5067798;28;20391;-74
2023/06/06 13:50:40;;;;;;;;;;;17.80;99.90;;;;;;5066454;28;19924;-74
2023/06/06 13:53:06;;;;;;;;;;;17.70;99.90;;;;;;5068042;28;19920;-73
2023/06/06 13:55:32;;;;;;;;;;;17.90;99.90;;;;;;5067697;28;19978;-75
2023/06/06 13:58:02;;;;;;;;;;;17.50;99.90;;;;;;5066309;28;19921;-74
2023/06/06 14:00:28;;;;;;;;;;;17.30;99.90;;;;;;5064994;28;20002;-73
2023/06/06 14:02:54;;;;;;;;;;;17.40;99.90;;;;;;5068197;28;20201;-74
2023/06/06 14:05:21;;;;;;;;;;;17.50;99.90;;;;;;5067409;28;19920;-74